Terminal Aerodrome Forecast
Issued by NWS Corpus Christi, TX

Current Version | Previous Version | Text Only | Print | Product List | Glossary Off
Versions: 1 2 3 4 5 6 7 8 9 10 11 12 13

000
FTUS44 KCRP 242300
TAFCRP
TAF
KCRP 242328Z 2500/2524 09006KT P6SM SKC
     FM250400 VRB04KT P6SM FEW025
     FM251900 10009KT P6SM FEW040=

USA.gov is the U.S. government's official web portal to all federal, state and local government web resources and services.